createdAt,value
2023-03-02T00:02:31.570Z,98613.31
2023-03-02T00:07:34.729Z,98613.97
2023-03-02T00:12:36.220Z,98609.25
2023-03-02T00:17:37.786Z,98606.81
2023-03-02T00:22:41.612Z,98607.19
2023-03-02T00:27:43.834Z,98605.72
2023-03-02T00:32:45.744Z,98603.59
2023-03-02T00:37:48.102Z,98611.00
2023-03-02T00:42:49.509Z,98598.34
2023-03-02T00:47:50.913Z,98594.44
2023-03-02T00:52:52.362Z,98589.44
2023-03-02T00:57:56.654Z,98573.00
2023-03-02T01:03:04.567Z,98570.38
2023-03-02T01:08:06.342Z,98560.97
2023-03-02T01:13:07.986Z,98557.91
2023-03-02T01:18:11.062Z,98559.09
2023-03-02T01:23:13.498Z,98560.25
2023-03-02T01:28:14.910Z,98555.94
2023-03-02T01:33:16.316Z,98554.34
2023-03-02T01:38:17.839Z,98553.50
2023-03-02T01:43:19.361Z,98548.28
2023-03-02T01:48:25.933Z,98538.06
2023-03-02T01:53:31.567Z,98536.66
2023-03-02T01:58:37.261Z,98531.25
2023-03-02T02:03:38.948Z,98530.94
2023-03-02T02:08:40.442Z,98529.72
2023-03-02T02:13:43.158Z,98512.09
2023-03-02T02:18:44.679Z,98517.16
2023-03-02T02:23:56.385Z,98511.28
2023-03-02T02:29:02.223Z,98514.91
2023-03-02T02:34:12.235Z,98514.91
2023-03-02T02:39:21.118Z,98509.88
2023-03-02T02:44:22.675Z,98514.75
2023-03-02T02:49:35.140Z,98505.59
2023-03-02T02:54:38.203Z,98500.63
2023-03-02T02:59:53.972Z,98498.38
2023-03-02T03:05:02.788Z,98489.69
2023-03-02T03:10:25.266Z,98488.34
2023-03-02T03:15:26.786Z,98489.00
2023-03-02T03:20:29.110Z,98491.34
2023-03-02T03:25:31.933Z,98490.53
2023-03-02T03:30:34.459Z,98488.16
2023-03-02T03:35:38.045Z,98486.09
2023-03-02T03:40:39.874Z,98479.69
2023-03-02T03:45:41.422Z,98487.03
2023-03-02T03:50:43.087Z,98482.75
2023-03-02T03:55:44.626Z,98482.84
2023-03-02T04:00:47.583Z,98493.22
2023-03-02T04:05:49.521Z,98491.38
2023-03-02T04:10:51.019Z,98495.47
2023-03-02T04:15:53.630Z,98493.63
2023-03-02T04:20:55.388Z,98486.59
2023-03-02T04:25:57.776Z,98485.56
2023-03-02T04:30:59.750Z,98491.66
2023-03-02T04:36:02.205Z,98487.53
2023-03-02T04:41:04.181Z,98492.28
2023-03-02T04:46:05.950Z,98486.50
2023-03-02T04:51:15.871Z,98494.53
2023-03-02T04:56:17.607Z,98486.94
2023-03-02T05:01:20.138Z,98485.34
2023-03-02T05:06:24.359Z,98476.75
2023-03-02T05:11:26.653Z,98480.28
2023-03-02T05:16:31.951Z,98469.81
2023-03-02T05:21:34.042Z,98472.72
2023-03-02T05:26:35.825Z,98458.13
2023-03-02T05:31:42.998Z,98463.56
2023-03-02T05:36:45.254Z,98462.03
2023-03-02T05:41:46.717Z,98465.69
2023-03-02T05:46:49.416Z,98459.59
2023-03-02T05:51:50.854Z,98461.38
2023-03-02T05:56:52.266Z,98462.78
2023-03-02T06:01:58.587Z,98468.69
2023-03-02T06:07:00.068Z,98473.00
2023-03-02T06:12:01.490Z,98474.69
2023-03-02T06:17:02.983Z,98490.28
2023-03-02T06:22:04.504Z,98484.88
2023-03-02T06:27:05.911Z,98486.38
2023-03-02T06:32:10.417Z,98490.31
2023-03-02T06:37:11.985Z,98489.84
2023-03-02T06:42:13.390Z,98489.47
2023-03-02T06:47:14.934Z,98488.06
2023-03-02T06:52:16.715Z,98493.59
2023-03-02T06:57:18.135Z,98486.31
2023-03-02T07:02:19.586Z,98491.81
2023-03-02T07:07:20.990Z,98485.91
2023-03-02T07:12:22.441Z,98488.69
2023-03-02T07:17:23.907Z,98483.00
2023-03-02T07:22:25.430Z,98473.78
2023-03-02T07:27:26.918Z,98480.25
2023-03-02T07:32:28.680Z,98487.53
2023-03-02T07:37:30.141Z,98473.69
2023-03-02T07:42:31.579Z,98477.50
2023-03-02T07:47:35.630Z,98469.03
2023-03-02T07:52:37.037Z,98471.06
2023-03-02T07:57:38.451Z,98478.22
2023-03-02T08:02:41.461Z,98479.28
2023-03-02T08:07:43.888Z,98467.34
2023-03-02T08:12:45.430Z,98475.53
2023-03-02T08:17:46.875Z,98476.81
2023-03-02T08:22:48.386Z,98486.69
2023-03-02T08:27:49.799Z,98493.13
2023-03-02T08:32:51.795Z,98491.66
2023-03-02T08:37:54.057Z,98494.59
2023-03-02T08:42:57.322Z,98493.22
2023-03-02T08:47:58.657Z,98487.56
2023-03-02T08:53:00.150Z,98489.63
2023-03-02T08:58:01.630Z,98482.28
2023-03-02T09:03:03.359Z,98485.19
2023-03-02T09:08:05.130Z,98475.00
2023-03-02T09:13:08.531Z,98471.72
2023-03-02T09:18:10.323Z,98465.78
2023-03-02T09:23:13.515Z,98470.41
2023-03-02T09:28:15.934Z,98467.81
2023-03-02T09:33:17.410Z,98476.00
2023-03-02T09:38:19.283Z,98472.56
2023-03-02T09:43:42.210Z,98480.53
2023-03-02T09:49:02.077Z,98481.53
2023-03-02T09:54:09.823Z,98478.84
2023-03-02T09:59:24.383Z,98473.38
2023-03-02T10:04:28.752Z,98472.22
2023-03-02T10:09:30.322Z,98472.03
2023-03-02T10:14:38.980Z,98465.69
2023-03-02T10:19:56.307Z,98466.91
2023-03-02T10:25:23.950Z,98460.44
2023-03-02T10:30:33.732Z,98454.91
2023-03-02T10:35:38.070Z,98460.66
2023-03-02T10:40:43.241Z,98454.41
2023-03-02T10:45:45.961Z,98456.78
2023-03-02T10:50:54.182Z,98461.53
2023-03-02T10:55:55.703Z,98459.56
2023-03-02T11:01:05.866Z,98448.00
2023-03-02T11:06:18.083Z,98438.31
2023-03-02T11:11:24.737Z,98428.69
2023-03-02T11:16:31.479Z,98420.66
2023-03-02T11:21:58.143Z,98414.59
2023-03-02T11:27:27.641Z,98417.44
2023-03-02T11:32:45.698Z,98400.53
2023-03-02T11:37:53.083Z,98398.34
2023-03-02T11:42:57.229Z,98398.53
2023-03-02T11:48:31.279Z,98391.06
2023-03-02T11:53:46.113Z,98393.72
2023-03-02T11:58:55.548Z,98385.94
2023-03-02T12:04:11.232Z,98379.97
2023-03-02T12:09:30.626Z,98368.72
2023-03-02T12:14:38.357Z,98369.97
2023-03-02T12:19:44.978Z,98358.03
2023-03-02T12:24:46.492Z,98357.50
2023-03-02T12:30:08.032Z,98355.00
2023-03-02T12:35:12.699Z,98343.16
2023-03-02T12:40:24.150Z,98342.31
2023-03-02T12:45:47.592Z,98331.16
2023-03-02T12:50:51.034Z,98333.94
2023-03-02T12:55:52.541Z,98335.88
2023-03-02T13:01:01.761Z,98321.91
2023-03-02T13:06:15.856Z,98317.75
2023-03-02T13:11:25.738Z,98306.97
2023-03-02T13:16:33.434Z,98297.78
2023-03-02T13:21:39.200Z,98295.53
2023-03-02T13:26:40.752Z,98295.31
2023-03-02T13:31:42.504Z,98291.69
2023-03-02T13:36:43.999Z,98290.47
2023-03-02T13:41:57.511Z,98277.06
2023-03-02T13:46:59.526Z,98274.91
2023-03-02T13:52:18.117Z,98276.50
2023-03-02T13:57:30.774Z,98273.97
2023-03-02T14:02:32.379Z,98275.06
2023-03-02T14:07:33.853Z,98279.38
2023-03-02T14:12:35.491Z,98270.63
2023-03-02T14:17:36.986Z,98263.28
2023-03-02T14:22:38.876Z,98258.91
2023-03-02T14:27:41.254Z,98258.25
2023-03-02T14:32:42.703Z,98250.78
2023-03-02T14:37:49.224Z,98245.03
2023-03-02T14:42:51.757Z,98246.50
2023-03-02T14:47:53.344Z,98236.13
2023-03-02T14:52:56.583Z,98236.03
2023-03-02T14:58:10.464Z,98223.50
2023-03-02T15:03:19.176Z,98231.19
2023-03-02T15:08:21.924Z,98220.50
2023-03-02T15:13:23.378Z,98217.91
2023-03-02T15:18:24.810Z,98223.78
2023-03-02T15:23:26.258Z,98225.34
2023-03-02T15:28:28.035Z,98218.81
2023-03-02T15:33:29.435Z,98223.72
2023-03-02T15:38:30.904Z,98219.81
2023-03-02T15:43:33.123Z,98222.91
2023-03-02T15:48:35.616Z,98221.81
2023-03-02T15:53:38.641Z,98214.44
2023-03-02T15:58:40.384Z,98210.69
2023-03-02T16:03:43.117Z,98219.66
2023-03-02T16:08:45.033Z,98215.34
2023-03-02T16:13:46.646Z,98218.97
2023-03-02T16:18:55.112Z,98215.34
2023-03-02T16:24:03.158Z,98218.25
2023-03-02T16:29:07.955Z,98222.13
2023-03-02T16:34:09.971Z,98230.50
2023-03-02T16:39:12.352Z,98243.44
2023-03-02T16:44:14.591Z,98235.44
2023-03-02T16:49:16.058Z,98244.97
2023-03-02T16:54:17.635Z,98238.69
2023-03-02T16:59:19.080Z,98249.59
2023-03-02T17:04:21.885Z,98249.91
2023-03-02T17:09:23.353Z,98243.19
2023-03-02T17:14:25.019Z,98248.09
2023-03-02T17:19:26.913Z,98245.19
2023-03-02T17:24:28.890Z,98247.28
2023-03-02T17:29:30.703Z,98250.94
2023-03-02T17:34:32.121Z,98253.75
2023-03-02T17:39:33.511Z,98256.19
2023-03-02T17:44:38.378Z,98244.44
2023-03-02T17:49:40.998Z,98250.22
2023-03-02T17:54:43.518Z,98249.16
2023-03-02T17:59:46.145Z,98255.03
2023-03-02T18:04:47.656Z,98248.84
2023-03-02T18:09:49.066Z,98258.91
2023-03-02T18:14:50.589Z,98270.66
2023-03-02T18:19:52.210Z,98264.91
2023-03-02T18:24:53.675Z,98279.25
2023-03-02T18:29:55.150Z,98282.72
2023-03-02T18:34:56.591Z,98280.22
2023-03-02T18:39:58.013Z,98286.91
2023-03-02T18:45:00.163Z,98291.97
2023-03-02T18:50:02.443Z,98299.63
2023-03-02T18:55:04.361Z,98297.25
2023-03-02T19:00:09.590Z,98299.28
2023-03-02T19:05:11.524Z,98301.81
2023-03-02T19:10:14.818Z,98301.31
2023-03-02T19:15:16.484Z,98304.41
2023-03-02T19:20:24.659Z,98308.69
2023-03-02T19:25:26.271Z,98310.16
2023-03-02T19:30:27.949Z,98317.94
2023-03-02T19:35:30.422Z,98316.38
2023-03-02T19:40:32.052Z,98314.22
2023-03-02T19:45:35.534Z,98327.19
2023-03-02T19:50:36.989Z,98320.59
2023-03-02T19:55:39.518Z,98312.94
2023-03-02T20:00:41.030Z,98312.34
2023-03-02T20:05:42.514Z,98309.81
2023-03-02T20:10:47.030Z,98317.84
2023-03-02T20:15:48.734Z,98314.63
2023-03-02T20:20:50.273Z,98327.16
2023-03-02T20:25:52.022Z,98320.47
2023-03-02T20:30:59.713Z,98325.75
2023-03-02T20:36:03.035Z,98339.06
2023-03-02T20:41:06.046Z,98325.97
2023-03-02T20:46:08.131Z,98337.00
2023-03-02T20:51:09.715Z,98334.00
2023-03-02T20:56:12.595Z,98339.88
2023-03-02T21:01:15.962Z,98333.59
2023-03-02T21:06:17.803Z,98321.13
2023-03-02T21:11:20.704Z,98321.00
2023-03-02T21:16:28.246Z,98319.66
2023-03-02T21:21:40.801Z,98315.72
2023-03-02T21:26:44.275Z,98314.50
2023-03-02T21:31:46.085Z,98317.81
2023-03-02T21:36:50.595Z,98307.28
2023-03-02T21:41:53.000Z,98305.09
2023-03-02T21:46:55.000Z,98309.75
2023-03-02T21:51:56.957Z,98310.69
2023-03-02T21:56:58.636Z,98308.50
2023-03-02T22:02:01.335Z,98298.44
2023-03-02T22:07:03.105Z,98312.03
2023-03-02T22:12:13.549Z,98304.59
2023-03-02T22:17:24.575Z,98305.16
2023-03-02T22:22:30.316Z,98315.06
2023-03-02T22:27:32.020Z,98312.53
2023-03-02T22:32:38.265Z,98321.38
2023-03-02T22:37:39.755Z,98319.31
2023-03-02T22:42:41.161Z,98317.22
2023-03-02T22:47:44.202Z,98306.84
2023-03-02T22:52:45.698Z,98311.56
2023-03-02T22:57:47.191Z,98303.81
2023-03-02T23:02:48.709Z,98310.03
2023-03-02T23:07:50.572Z,98306.97
2023-03-02T23:12:51.991Z,98318.50
2023-03-02T23:17:53.418Z,98314.50
2023-03-02T23:22:56.117Z,98306.88
2023-03-02T23:27:57.598Z,98315.81
2023-03-02T23:32:59.039Z,98310.50
2023-03-02T23:38:01.381Z,98304.66
2023-03-02T23:43:02.805Z,98302.84
2023-03-02T23:48:04.768Z,98300.13
2023-03-02T23:53:06.170Z,98307.00
2023-03-02T23:58:07.667Z,98300.50
